^^
Saratoga-Weather Station Historical Data
Daily Summary for February 23, 2020 Units:  English    Metric   Both
Daily Weekly Monthly Yearly Custom
  High: Low: Average:
Temperature: 84.7 °F 55.4 °F 70.5 °F
Dew Point: 61.2 °F 50.5 °F 55.4 °F
Humidity: 85% 37% 62%
Wind Speed: 8.1mph 0mph 1.4mph
Wind Gust: 13mph - -
Wind- - SE
Pressure: 30.2 in 30.1 in -
Precipitation: 0 in    
Historical Graphs
 
 
Tabular Data for February 23, 2020
Time Temperature Dew Point Pressure Wind Wind Speed Wind Gust Humidity Rainfall Rate (Hourly) solar
00:04 62.2 °F 54.9 °F 30.2 in West 0.9 mph 3 mph 77% 0 in 0 W/m2
00:09 62.8 °F 55 °F 30.2 in Calm   4 mph 76% 0 in 0 W/m2
00:14 63 °F 55.2 °F 30.2 in Calm   2 mph 76% 0 in 0 W/m2
00:19 63 °F 55.2 °F 30.2 in Calm     76% 0 in 0 W/m2
00:24 62.8 °F 55 °F 30.2 in WSW 0.9 mph 2 mph 76% 0 in 0 W/m2
00:29 62.4 °F 55 °F 30.2 in Calm     77% 0 in 0 W/m2
00:34 62.2 °F 54.9 °F 30.2 in WSW 2 mph 2 mph 77% 0 in 0 W/m2
00:39 62.1 °F 55 °F 30.2 in Calm   2 mph 78% 0 in 0 W/m2
00:44 61.9 °F 55.2 °F 30.2 in Calm   1 mph 79% 0 in 0 W/m2
00:49 61.5 °F 54.9 °F 30.2 in Calm   2 mph 79% 0 in 0 W/m2
00:54 61.3 °F 54.9 °F 30.2 in Calm     79% 0 in 0 W/m2
00:59 61 °F 54.7 °F 30.2 in Calm   2 mph 80% 0 in 0 W/m2
01:04 60.6 °F 54.5 °F 30.2 in Calm   1 mph 80% 0 in 0 W/m2
01:09 60.6 °F 54.7 °F 30.2 in Calm   1 mph 81% 0 in 0 W/m2
01:14 60.4 °F 54.5 °F 30.2 in WSW 2 mph 3 mph 81% 0 in 0 W/m2
01:19 60.3 °F 54.3 °F 30.2 in Calm   2 mph 81% 0 in 0 W/m2
01:24 60.3 °F 54.3 °F 30.2 in WSW 0.9 mph 2 mph 81% 0 in 0 W/m2
01:29 60.1 °F 54.3 °F 30.2 in Calm   1 mph 81% 0 in 0 W/m2
01:34 59.9 °F 54.1 °F 30.2 in Calm     81% 0 in 0 W/m2
01:39 59.7 °F 54 °F 30.2 in WSW 0.9 mph 1 mph 81% 0 in 0 W/m2
01:44 59.5 °F 53.8 °F 30.2 in Calm   1 mph 81% 0 in 0 W/m2
01:49 59.4 °F 53.8 °F 30.2 in Calm     82% 0 in 0 W/m2
01:54 59.2 °F 53.6 °F 30.2 in WSW 0.9 mph 2 mph 82% 0 in 0 W/m2
01:59 59 °F 53.6 °F 30.2 in Calm   1 mph 82% 0 in 0 W/m2
02:04 58.6 °F 53.2 °F 30.2 in Calm     82% 0 in 0 W/m2
02:09 58.6 °F 53.4 °F 30.2 in Calm   1 mph 83% 0 in 0 W/m2
02:14 58.5 °F 53.2 °F 30.2 in Calm     83% 0 in 0 W/m2
02:19 58.3 °F 53.1 °F 30.2 in WSW 0.9 mph 2 mph 83% 0 in 0 W/m2
02:24 58.3 °F 53.1 °F 30.2 in Calm   1 mph 83% 0 in 0 W/m2
02:29 58.3 °F 53.1 °F 30.2 in WSW 2 mph 2 mph 83% 0 in 0 W/m2
02:34 58.3 °F 53.1 °F 30.2 in Calm   1 mph 83% 0 in 0 W/m2
02:39 58.3 °F 53.1 °F 30.2 in WSW 0.9 mph 2 mph 83% 0 in 0 W/m2
02:44 58.1 °F 52.9 °F 30.2 in Calm     83% 0 in 0 W/m2
02:49 57.9 °F 52.7 °F 30.2 in Calm   2 mph 83% 0 in 0 W/m2
02:54 57.7 °F 52.3 °F 30.2 in Calm     82% 0 in 0 W/m2
02:59 57.7 °F 52.3 °F 30.2 in WSW 0.9 mph 1 mph 82% 0 in 0 W/m2
03:04 57.7 °F 52.3 °F 30.2 in WSW 0.9 mph 2 mph 82% 0 in 0 W/m2
03:09 57.7 °F 52.3 °F 30.2 in Calm   1 mph 82% 0 in 0 W/m2
03:14 57.7 °F 52.3 °F 30.2 in Calm   2 mph 82% 0 in 0 W/m2
03:19 57.7 °F 52.3 °F 30.2 in Calm     82% 0 in 0 W/m2
03:24 57.6 °F 52.2 °F 30.2 in Calm   1 mph 82% 0 in 0 W/m2
03:29 57.4 °F 52 °F 30.2 in Calm   1 mph 82% 0 in 0 W/m2
03:34 57.4 °F 52 °F 30.2 in Calm   1 mph 82% 0 in 0 W/m2
03:39 57 °F 52 °F 30.2 in WSW 0.9 mph 1 mph 83% 0 in 0 W/m2
03:44 57 °F 51.6 °F 30.2 in WSW 0.9 mph 1 mph 82% 0 in 0 W/m2
03:49 57 °F 51.6 °F 30.2 in Calm     82% 0 in 0 W/m2
03:54 57 °F 51.6 °F 30.2 in WSW 2 mph 3 mph 82% 0 in 0 W/m2
03:59 57 °F 51.6 °F 30.2 in Calm   2 mph 82% 0 in 0 W/m2
04:04 57.4 °F 51.6 °F 30.2 in WSW 0.9 mph 2 mph 81% 0 in 0 W/m2
04:09 57.4 °F 51.6 °F 30.2 in WSW 2 mph 2 mph 81% 0 in 0 W/m2
04:14 57.4 °F 51.6 °F 30.2 in SW 2 mph 2 mph 81% 0 in 0 W/m2
04:19 57.4 °F 51.3 °F 30.2 in SW 0.9 mph 2 mph 80% 0 in 0 W/m2
04:24 57.4 °F 51.3 °F 30.2 in SW 2 mph 2 mph 80% 0 in 0 W/m2
04:29 57.6 °F 51.4 °F 30.2 in Calm   2 mph 80% 0 in 0 W/m2
04:34 57.4 °F 51.3 °F 30.2 in Calm     80% 0 in 0 W/m2
04:39 57.2 °F 51.1 °F 30.2 in Calm     80% 0 in 0 W/m2
04:44 57 °F 51.3 °F 30.2 in Calm   1 mph 81% 0 in 0 W/m2
04:49 56.8 °F 51.1 °F 30.2 in Calm     81% 0 in 0 W/m2
04:54 56.7 °F 50.9 °F 30.2 in Calm     81% 0 in 0 W/m2
04:59 56.5 °F 51.1 °F 30.2 in Calm   1 mph 82% 0 in 0 W/m2
05:04 56.1 °F 50.7 °F 30.2 in Calm     82% 0 in 0 W/m2
05:09 55.9 °F 50.5 °F 30.2 in Calm     82% 0 in 0 W/m2
05:14 55.9 °F 50.9 °F 30.2 in Calm     83% 0 in 0 W/m2
05:19 55.8 °F 50.7 °F 30.2 in Calm     83% 0 in 0 W/m2
05:24 55.8 °F 50.7 °F 30.2 in Calm     83% 0 in 0 W/m2
05:29 55.8 °F 50.7 °F 30.2 in Calm   2 mph 83% 0 in 0 W/m2
05:34 55.8 °F 50.7 °F 30.2 in Calm   1 mph 83% 0 in 5 W/m2
05:39 55.8 °F 50.7 °F 30.2 in Calm   2 mph 83% 0 in 7 W/m2
05:44 55.8 °F 50.7 °F 30.2 in Calm     83% 0 in 9 W/m2
05:49 55.6 °F 50.9 °F 30.2 in Calm   2 mph 84% 0 in 11 W/m2
05:54 55.6 °F 50.9 °F 30.2 in Calm   1 mph 84% 0 in 12 W/m2
05:59 55.6 °F 50.9 °F 30.2 in Calm   2 mph 84% 0 in 14 W/m2
06:04 55.4 °F 50.7 °F 30.2 in Calm     84% 0 in 18 W/m2
06:09 55.4 °F 50.9 °F 30.2 in Calm   1 mph 85% 0 in 19 W/m2
06:14 55.6 °F 51.1 °F 30.2 in Calm   2 mph 85% 0 in 21 W/m2
06:19 55.8 °F 51.3 °F 30.2 in Calm   2 mph 85% 0 in 23 W/m2
06:24 55.9 °F 51.3 °F 30.2 in Calm     84% 0 in 25 W/m2
06:29 56.3 °F 51.8 °F 30.2 in SW 0.9 mph 2 mph 85% 0 in 26 W/m2
06:34 56.5 °F 51.4 °F 30.2 in SW 0.9 mph 2 mph 83% 0 in 26 W/m2
06:39 57 °F 51.6 °F 30.2 in Calm     82% 0 in 28 W/m2
06:44 57.4 °F 51.6 °F 30.2 in Calm   2 mph 81% 0 in 30 W/m2
06:49 57.7 °F 51.3 °F 30.2 in WSW 0.9 mph 1 mph 79% 0 in 30 W/m2
06:54 58.3 °F 51.4 °F 30.2 in WSW 0.9 mph 1 mph 78% 0 in 32 W/m2
06:59 58.6 °F 51.4 °F 30.2 in Calm     77% 0 in 33 W/m2
07:04 58.8 °F 51.6 °F 30.2 in West 2 mph 2 mph 77% 0 in 33 W/m2
07:09 59.2 °F 51.6 °F 30.2 in West 0.9 mph 2 mph 76% 0 in 35 W/m2
07:14 59.5 °F 52 °F 30.2 in Calm   2 mph 76% 0 in 35 W/m2
07:19 59.7 °F 52.2 °F 30.2 in Calm     76% 0 in 37 W/m2
07:24 59.7 °F 51.8 °F 30.2 in Calm     75% 0 in 37 W/m2
07:29 60.1 °F 52.2 °F 30.2 in ENE 0.9 mph 1 mph 75% 0 in 39 W/m2
07:34 60.3 °F 52.3 °F 30.2 in Calm     75% 0 in 44 W/m2
07:39 60.4 °F 52.5 °F 30.2 in NW 2 mph 2 mph 75% 0 in 142 W/m2
07:44 60.6 °F 52.7 °F 30.2 in East 0.9 mph 2 mph 75% 0 in 234 W/m2
07:49 61 °F 53.1 °F 30.2 in Calm   1 mph 75% 0 in 248 W/m2
07:54 61.3 °F 53.1 °F 30.2 in NNW 0.9 mph 1 mph 74% 0 in 260 W/m2
07:59 62.1 °F 53.2 °F 30.2 in Calm   2 mph 73% 0 in 274 W/m2
08:04 62.8 °F 53.6 °F 30.2 in Calm   2 mph 72% 0 in 285 W/m2
08:09 63 °F 54.1 °F 30.2 in WNW 2 mph 3 mph 73% 0 in 246 W/m2
08:14 63.1 °F 53.6 °F 30.2 in NNW 2 mph 3 mph 71% 0 in 107 W/m2
08:19 63.3 °F 53.8 °F 30.2 in WNW 0.9 mph 4 mph 71% 0 in 53 W/m2
08:24 63.7 °F 54.1 °F 30.2 in Calm   3 mph 71% 0 in 53 W/m2
08:29 64 °F 54.5 °F 30.2 in NNW 2 mph 4 mph 71% 0 in 53 W/m2
08:34 64.8 °F 55.2 °F 30.2 in ENE 0.9 mph 2 mph 71% 0 in 51 W/m2
08:39 65.5 °F 55 °F 30.2 in NW 2 mph 2 mph 69% 0 in 51 W/m2
08:44 65.5 °F 55 °F 30.2 in ESE 0.9 mph 2 mph 69% 0 in 53 W/m2
08:49 65.7 °F 55.2 °F 30.2 in Calm   2 mph 69% 0 in 53 W/m2
08:54 66 °F 55.6 °F 30.2 in WNW 0.9 mph 1 mph 69% 0 in 53 W/m2
08:59 66.4 °F 55.6 °F 30.2 in Calm   3 mph 68% 0 in 104 W/m2
09:04 66.6 °F 55.6 °F 30.2 in NNE 2 mph 2 mph 68% 0 in 308 W/m2
09:09 67.3 °F 56.3 °F 30.2 in Calm   3 mph 68% 0 in 383 W/m2
09:14 67.5 °F 56.1 °F 30.2 in Calm   1 mph 67% 0 in 462 W/m2
09:19 67.8 °F 56.5 °F 30.2 in Calm     67% 0 in 483 W/m2
09:24 68.7 °F 56.5 °F 30.2 in NE 2 mph 5 mph 65% 0 in 499 W/m2
09:29 69.3 °F 56.5 °F 30.2 in ENE 2.9 mph 5 mph 64% 0 in 513 W/m2
09:34 69.6 °F 57.4 °F 30.2 in ENE 2 mph 2 mph 65% 0 in 524 W/m2
09:39 70.2 °F 57.4 °F 30.2 in NW 5 mph 5 mph 64% 0 in 536 W/m2
09:44 70.3 °F 57.2 °F 30.2 in East 2 mph 4 mph 63% 0 in 550 W/m2
09:49 70.5 °F 57.4 °F 30.2 in ESE 2.9 mph 6 mph 63% 0 in 561 W/m2
09:54 70.5 °F 56.8 °F 30.2 in ESE 2 mph 3 mph 62% 0 in 573 W/m2
09:59 70.7 °F 57.9 °F 30.2 in NE 4 mph 6 mph 64% 0 in 585 W/m2
10:04 70.9 °F 58.1 °F 30.2 in ENE 4 mph 4 mph 64% 0 in 599 W/m2
10:09 70.9 °F 58.1 °F 30.2 in NE 2.9 mph 4 mph 64% 0 in 550 W/m2
10:14 71.1 °F 58.3 °F 30.2 in Calm   2 mph 64% 0 in 67 W/m2
10:19 71.1 °F 57.7 °F 30.2 in North 0.9 mph 2 mph 63% 0 in 130 W/m2
10:24 71.1 °F 58.3 °F 30.2 in NE 0.9 mph 2 mph 64% 0 in 640 W/m2
10:29 71.2 °F 58.5 °F 30.2 in East 4.9 mph 5 mph 64% 0 in 652 W/m2
10:34 71.8 °F 58.5 °F 30.2 in NNE 0.9 mph 2 mph 63% 0 in 666 W/m2
10:39 72.1 °F 58.8 °F 30.2 in North 2 mph 4 mph 63% 0 in 675 W/m2
10:44 72.7 °F 59.4 °F 30.2 in WNW 2.9 mph 3 mph 63% 0 in 693 W/m2
10:49 73 °F 59.7 °F 30.2 in ENE 2.9 mph 4 mph 63% 0 in 701 W/m2
10:54 73.6 °F 59.4 °F 30.2 in Calm   2 mph 61% 0 in 714 W/m2
10:59 73.8 °F 59.9 °F 30.2 in ENE 2.9 mph 4 mph 62% 0 in 729 W/m2
11:04 74.1 °F 60.3 °F 30.2 in North 0.9 mph 3 mph 62% 0 in 740 W/m2
11:09 74.7 °F 60.8 °F 30.2 in SE 0.9 mph 4 mph 62% 0 in 751 W/m2
11:14 75.2 °F 60.8 °F 30.2 in SW 0.9 mph 1 mph 61% 0 in 761 W/m2
11:19 75.6 °F 60.3 °F 30.2 in East 4 mph 4 mph 59% 0 in 142 W/m2
11:24 75.4 °F 60.1 °F 30.2 in ENE 4 mph 8 mph 59% 0 in 287 W/m2
11:29 75.2 °F 59.9 °F 30.2 in NNE 0.9 mph 7 mph 59% 0 in 221 W/m2
11:34 75.6 °F 61.2 °F 30.2 in SE 0.9 mph 4 mph 61% 0 in 918 W/m2
11:39 75.6 °F 59.7 °F 30.2 in NE 2 mph 7 mph 58% 0 in 323 W/m2
11:44 75.6 °F 60.3 °F 30.2 in ESE 6.9 mph 7 mph 59% 0 in 343 W/m2
11:49 75.6 °F 59.7 °F 30.2 in East 0.9 mph 3 mph 58% 0 in 246 W/m2
11:55 76.1 °F 59.2 °F 30.2 in NNE 0.9 mph 7 mph 56% 0 in 246 W/m2
12:00 76.1 °F 59.2 °F 30.2 in NNE 0.9 mph 6 mph 56% 0 in 884 W/m2
12:05 76.6 °F 59.2 °F 30.2 in East 2.9 mph 7 mph 55% 0 in 872 W/m2
12:10 77.4 °F 58.8 °F 30.2 in East 2.9 mph 10 mph 53% 0 in 888 W/m2
12:15 77.5 °F 59 °F 30.2 in ESE 2.9 mph 6 mph 53% 0 in 867 W/m2
12:20 77.7 °F 59.2 °F 30.2 in NNW 2 mph 10 mph 53% 0 in 893 W/m2
12:25 77.9 °F 59.9 °F 30.2 in East 0.9 mph 4 mph 54% 0 in 886 W/m2
12:30 78.4 °F 59.4 °F 30.2 in East 0.9 mph 3 mph 52% 0 in 886 W/m2
12:35 78.8 °F 58.6 °F 30.2 in ESE 6.9 mph 9 mph 50% 0 in 868 W/m2
12:40 78.6 °F 58.5 °F 30.2 in NNE 0.9 mph 5 mph 50% 0 in 879 W/m2
12:45 78.3 °F 58.6 °F 30.2 in NE 2 mph 13 mph 51% 0 in 863 W/m2
12:50 77.7 °F 58.6 °F 30.2 in East 4 mph 8 mph 52% 0 in 872 W/m2
12:55 77.9 °F 58.3 °F 30.2 in SE 2.9 mph 11 mph 51% 0 in 874 W/m2
13:00 78.3 °F 59.2 °F 30.2 in NNE 2 mph 3 mph 52% 0 in 888 W/m2
13:05 78.6 °F 58.5 °F 30.2 in Calm   8 mph 50% 0 in 886 W/m2
13:10 79.2 °F 59.5 °F 30.2 in ENE 2 mph 5 mph 51% 0 in 891 W/m2
13:15 79.3 °F 59 °F 30.2 in North 2 mph 8 mph 50% 0 in 893 W/m2
13:20 79.5 °F 59.7 °F 30.2 in NNE 2.9 mph 4 mph 51% 0 in 893 W/m2
13:25 79.7 °F 59.4 °F 30.2 in ENE 2 mph 8 mph 50% 0 in 900 W/m2
13:30 79.9 °F 57.2 °F 30.2 in East 2 mph 7 mph 46% 0 in 895 W/m2
13:35 79.7 °F 58.8 °F 30.2 in NNW 2.9 mph 3 mph 49% 0 in 893 W/m2
13:40 79.9 °F 59 °F 30.2 in East 2.9 mph 4 mph 49% 0 in 907 W/m2
13:45 80.2 °F 57.6 °F 30.2 in WNW 0.9 mph 2 mph 46% 0 in 900 W/m2
13:50 80.1 °F 58.1 °F 30.2 in ESE 0.9 mph 9 mph 47% 0 in 898 W/m2
13:55 80.1 °F 58.6 °F 30.2 in WNW 2 mph 4 mph 48% 0 in 900 W/m2
14:00 80.1 °F 58.6 °F 30.2 in ESE 8.1 mph 9 mph 48% 0 in 904 W/m2
14:05 80.1 °F 58.1 °F 30.2 in NW 2 mph 5 mph 47% 0 in 896 W/m2
14:10 80.1 °F 58.6 °F 30.2 in ENE 8.1 mph 13 mph 48% 0 in 896 W/m2
14:15 80.2 °F 57.6 °F 30.2 in ENE 2 mph 10 mph 46% 0 in 893 W/m2
14:20 80.4 °F 56.5 °F 30.2 in East 4.9 mph 13 mph 44% 0 in 895 W/m2
14:25 80.6 °F 57.9 °F 30.2 in East 2 mph 5 mph 46% 0 in 895 W/m2
14:30 81 °F 58.3 °F 30.2 in NE 2.9 mph 4 mph 46% 0 in 888 W/m2
14:36 81.1 °F 58.5 °F 30.2 in NE 2.9 mph 4 mph 46% 0 in 882 W/m2
14:41 81.1 °F 57.7 °F 30.2 in East 4 mph 4 mph 45% 0 in 881 W/m2
14:46 81.9 °F 57.2 °F 30.2 in North 8.1 mph 9 mph 43% 0 in 882 W/m2
14:51 81.7 °F 57.6 °F 30.2 in NNE 2 mph 7 mph 44% 0 in 877 W/m2
14:56 81.7 °F 56.3 °F 30.2 in ENE 0.9 mph 6 mph 42% 0 in 870 W/m2
15:01 81.7 °F 56.3 °F 30.2 in ENE 0.9 mph 5 mph 42% 0 in 867 W/m2
15:06 81.9 °F 57.7 °F 30.2 in East 6.9 mph 7 mph 44% 0 in 868 W/m2
15:11 82 °F 55.9 °F 30.2 in East 4 mph 4 mph 41% 0 in 867 W/m2
15:16 82 °F 57.9 °F 30.2 in SSE 2 mph 5 mph 44% 0 in 858 W/m2
15:21 81.9 °F 57.2 °F 30.2 in ENE 2.9 mph 7 mph 43% 0 in 849 W/m2
15:31 81.9 °F 55.9 °F 30.2 in East 2.9 mph 8 mph 41% 0 in 837 W/m2
15:36 82 °F 55.9 °F 30.2 in ENE 0.9 mph 3 mph 41% 0 in 835 W/m2
15:41 82.2 °F 55.6 °F 30.2 in SW 2 mph 7 mph 40% 0 in 828 W/m2
15:46 82.8 °F 59.2 °F 30.2 in West 0.9 mph 5 mph 45% 0 in 817 W/m2
15:51 82.9 °F 58.8 °F 30.2 in ESE 4 mph 4 mph 44% 0 in 816 W/m2
15:56 82.8 °F 55.2 °F 30.2 in ESE 2.9 mph 5 mph 39% 0 in 812 W/m2
16:01 82.8 °F 57.4 °F 30.2 in SE 0.9 mph 5 mph 42% 0 in 793 W/m2
16:06 82.9 °F 55.4 °F 30.2 in NNE 0.9 mph 8 mph 39% 0 in 788 W/m2
16:11 82.6 °F 55.8 °F 30.2 in SE 2 mph 10 mph 40% 0 in 775 W/m2
16:16 82.4 °F 55.6 °F 30.2 in NNW 2.9 mph 5 mph 40% 0 in 765 W/m2
16:21 82.8 °F 56.7 °F 30.2 in ESE 2 mph 5 mph 41% 0 in 754 W/m2
16:26 83.1 °F 57 °F 30.2 in NNE 2.9 mph 4 mph 41% 0 in 744 W/m2
16:31 83.5 °F 55.9 °F 30.2 in NE 2.9 mph 3 mph 39% 0 in 735 W/m2
16:37 83.7 °F 56.8 °F 30.2 in East 4 mph 6 mph 40% 0 in 726 W/m2
16:42 83.8 °F 56.3 °F 30.2 in SE 2 mph 8 mph 39% 0 in 710 W/m2
16:47 83.7 °F 57.4 °F 30.2 in NNE 4 mph 10 mph 41% 0 in 696 W/m2
16:52 83.7 °F 57.4 °F 30.2 in NW 2 mph 4 mph 41% 0 in 693 W/m2
16:57 83.8 °F 58.3 °F 30.2 in ENE 2 mph 3 mph 42% 0 in 679 W/m2
17:02 83.7 °F 56.1 °F 30.2 in SE 2.9 mph 6 mph 39% 0 in 666 W/m2
17:07 83.7 °F 57.4 °F 30.2 in East 4.9 mph 5 mph 41% 0 in 654 W/m2
17:12 83.7 °F 56.1 °F 30.2 in NE 4 mph 5 mph 39% 0 in 640 W/m2
17:17 83.7 °F 57.4 °F 30.2 in East 2.9 mph 5 mph 41% 0 in 636 W/m2
17:22 83.8 °F 57.6 °F 30.2 in ENE 4.9 mph 5 mph 41% 0 in 622 W/m2
17:27 83.8 °F 55.6 °F 30.2 in ENE 4 mph 5 mph 38% 0 in 605 W/m2
17:32 83.8 °F 57 °F 30.2 in NNE 4 mph 5 mph 40% 0 in 598 W/m2
17:37 83.8 °F 57 °F 30.2 in NE 4 mph 7 mph 40% 0 in 591 W/m2
17:47 84.2 °F 55.8 °F 30.2 in East 2.9 mph 6 mph 38% 0 in 564 W/m2
17:52 83.8 °F 55.6 °F 30.1 in East 0.9 mph 4 mph 38% 0 in 547 W/m2
17:57 83.8 °F 56.3 °F 30.1 in ENE 6 mph 7 mph 39% 0 in 531 W/m2
18:02 84 °F 57 °F 30.1 in ESE 2 mph 3 mph 40% 0 in 520 W/m2
18:07 84.4 °F 58.1 °F 30.1 in SE 2.9 mph 4 mph 41% 0 in 506 W/m2
18:12 84.7 °F 57.7 °F 30.1 in Calm   4 mph 40% 0 in 494 W/m2
18:17 84.7 °F 57 °F 30.1 in ESE 2 mph 6 mph 39% 0 in 471 W/m2
18:22 84.6 °F 56.1 °F 30.1 in East 2.9 mph 4 mph 38% 0 in 443 W/m2
18:27 84.6 °F 56.1 °F 30.1 in NE 0.9 mph 7 mph 38% 0 in 403 W/m2
18:32 84.6 °F 56.1 °F 30.1 in East 2 mph 6 mph 38% 0 in 371 W/m2
18:38 84.6 °F 56.8 °F 30.1 in ESE 0.9 mph 4 mph 39% 0 in 341 W/m2
18:43 84.2 °F 55.8 °F 30.1 in ENE 2.9 mph 9 mph 38% 0 in 322 W/m2
18:48 83.8 °F 54.9 °F 30.1 in ENE 2.9 mph 6 mph 37% 0 in 294 W/m2
18:53 83.8 °F 55.6 °F 30.1 in ESE 0.9 mph 8 mph 38% 0 in 272 W/m2
18:58 83.8 °F 55.6 °F 30.1 in East 0.9 mph 5 mph 38% 0 in 264 W/m2
19:03 83.8 °F 56.3 °F 30.1 in East 2 mph 8 mph 39% 0 in 272 W/m2
19:08 84 °F 56.5 °F 30.1 in SSE 2 mph 6 mph 39% 0 in 294 W/m2
19:13 83.8 °F 57 °F 30.1 in East 0.9 mph 1 mph 40% 0 in 309 W/m2
19:19 83.7 °F 56.1 °F 30.1 in ENE 2 mph 4 mph 39% 0 in 308 W/m2
19:24 83.7 °F 56.8 °F 30.1 in ESE 0.9 mph 3 mph 40% 0 in 292 W/m2
19:29 83.7 °F 56.1 °F 30.1 in East 4 mph 4 mph 39% 0 in 276 W/m2
19:34 83.5 °F 56.7 °F 30.1 in ESE 2 mph 4 mph 40% 0 in 253 W/m2
19:39 83.5 °F 55.9 °F 30.1 in SSW 2 mph 2 mph 39% 0 in 211 W/m2
19:44 83.5 °F 55.9 °F 30.1 in East 0.9 mph 3 mph 39% 0 in 181 W/m2
19:49 83.1 °F 54.9 °F 30.1 in ESE 2.9 mph 3 mph 38% 0 in 174 W/m2
19:54 82.9 °F 56.1 °F 30.1 in Calm   1 mph 40% 0 in 176 W/m2
19:59 82.8 °F 54.5 °F 30.1 in ESE 0.9 mph 3 mph 38% 0 in 176 W/m2
20:04 82.4 °F 56.3 °F 30.1 in ENE 0.9 mph 3 mph 41% 0 in 162 W/m2
20:09 82.4 °F 57 °F 30.1 in ENE 0.9 mph 1 mph 42% 0 in 149 W/m2
20:14 82.2 °F 56.8 °F 30.1 in Calm   2 mph 42% 0 in 137 W/m2
20:19 82 °F 55.9 °F 30.1 in East 2.9 mph 6 mph 41% 0 in 127 W/m2
20:24 81.9 °F 55.9 °F 30.1 in Calm   3 mph 41% 0 in 116 W/m2
20:29 81.7 °F 56.3 °F 30.1 in SSE 0.9 mph 3 mph 42% 0 in 105 W/m2
20:34 81.1 °F 56.5 °F 30.1 in ENE 0.9 mph 4 mph 43% 0 in 84 W/m2
20:39 81 °F 55.8 °F 30.1 in ESE 2.9 mph 3 mph 42% 0 in 72 W/m2
20:44 80.4 °F 55.2 °F 30.1 in Calm   1 mph 42% 0 in 74 W/m2
20:49 80.2 °F 55.8 °F 30.1 in Calm   2 mph 43% 0 in 63 W/m2
20:54 79.9 °F 55.4 °F 30.1 in Calm   2 mph 43% 0 in 56 W/m2
20:59 79.3 °F 56.8 °F 30.1 in Calm   4 mph 46% 0 in 49 W/m2
21:04 79 °F 57 °F 30.1 in ENE 0.9 mph 2 mph 47% 0 in 40 W/m2
21:09 78.4 °F 57.7 °F 30.1 in Calm   2 mph 49% 0 in 33 W/m2
21:14 77.7 °F 57 °F 30.1 in East 0.9 mph 2 mph 49% 0 in 19 W/m2
21:19 76.8 °F 57.4 °F 30.1 in Calm   2 mph 51% 0 in 16 W/m2
21:24 75.9 °F 57 °F 30.1 in Calm   2 mph 52% 0 in 14 W/m2
21:29 75.4 °F 57 °F 30.1 in Calm     53% 0 in 11 W/m2
21:34 74.7 °F 56.8 °F 30.1 in Calm     54% 0 in 7 W/m2
21:39 73.9 °F 56.8 °F 30.1 in East 2 mph 2 mph 55% 0 in 5 W/m2
21:44 73.2 °F 56.7 °F 30.1 in Calm   1 mph 56% 0 in 5 W/m2
21:49 72.7 °F 56.5 °F 30.1 in Calm     57% 0 in 0 W/m2
21:54 72 °F 55.9 °F 30.1 in East 2 mph 2 mph 57% 0 in 0 W/m2
21:59 71.2 °F 55.8 °F 30.2 in Calm   1 mph 58% 0 in 0 W/m2
22:04 70.9 °F 56.3 °F 30.1 in East 0.9 mph 2 mph 60% 0 in 0 W/m2
22:09 70.3 °F 56.3 °F 30.2 in East 0.9 mph 2 mph 61% 0 in 0 W/m2
22:14 69.8 °F 56.1 °F 30.2 in East 0.9 mph 2 mph 62% 0 in 0 W/m2
22:19 69.4 °F 55.4 °F 30.2 in East 0.9 mph 2 mph 61% 0 in 0 W/m2
22:24 69.1 °F 55.6 °F 30.2 in East 0.9 mph 2 mph 62% 0 in 0 W/m2
22:29 68.9 °F 55.8 °F 30.2 in East 0.9 mph 2 mph 63% 0 in 0 W/m2
22:34 68.7 °F 55.6 °F 30.2 in Calm   2 mph 63% 0 in 0 W/m2
22:39 68.5 °F 55.9 °F 30.2 in East 0.9 mph 2 mph 64% 0 in 0 W/m2
22:44 68.4 °F 55.8 °F 30.2 in East 0.9 mph 1 mph 64% 0 in 0 W/m2
22:49 68.2 °F 55.9 °F 30.2 in Calm   2 mph 65% 0 in 0 W/m2
22:54 67.8 °F 55.2 °F 30.2 in Calm   2 mph 64% 0 in 0 W/m2
22:59 67.8 °F 55.2 °F 30.2 in Calm     64% 0 in 0 W/m2
23:04 67.6 °F 55 °F 30.2 in Calm   1 mph 64% 0 in 0 W/m2
23:09 67.5 °F 55.2 °F 30.2 in Calm     65% 0 in 0 W/m2
23:14 67.3 °F 55.6 °F 30.2 in Calm     66% 0 in 0 W/m2
23:19 66.9 °F 55.2 °F 30.2 in Calm     66% 0 in 0 W/m2
23:29 66.4 °F 55 °F 30.2 in East 0.9 mph 2 mph 67% 0 in 0 W/m2
23:34 66.2 °F 55.4 °F 30.2 in East 0.9 mph 1 mph 68% 0 in 0 W/m2
23:39 65.8 °F 55 °F 30.2 in Calm     68% 0 in 0 W/m2
23:44 65.7 °F 54.9 °F 30.2 in Calm     68% 0 in 0 W/m2
23:49 65.5 °F 54.7 °F 30.2 in Calm     68% 0 in 0 W/m2
23:54 65.3 °F 54.9 °F 30.2 in Calm     69% 0 in 0 W/m2
23:59 64.9 °F 54.5 °F 30.2 in Calm   1 mph 69% 0 in 0 W/m2
Juneau County Weather
Compliments of Weather Underground - 4 mb